• Join FlightAware (Why Join?)
  • Login
  • US Flag 
06:24PM EDT


 

Airport Tracker/Info


-or-


 

Live Flight TrackerFlight Track Log ✈ AXM5241 ✈ 24-Aug-2013 ✈ WBGB / BTU - WMKK / KUL

Flight Track Log - Related Links

Times and Time Zones

All times are in EDT time to prevent confusion due to time zone crossing. See the AXM5241 flight status page for this flight to view local times or setup timezone preferences in your user account.

Time Position Orientation Groundspeed Altitude Reporting Facility
EDT Latitude Longitude Course Direction KTS MPH feet Rate Location/Type
04:38AM 2.9000 111.1010 261° West 470 541 33,900  Level FlightAware
04:39AM 2.8880 111.0260 261° West 470 541 33,900 60 Level FlightAware
04:39AM 2.8720 110.9080 262° West 485 558 34,000 60 Climbing FlightAware
04:40AM 2.8590 110.8250 261° West 485 558 34,000  Level FlightAware
04:41AM 2.8480 110.7450 262° West 485 558 34,000  Level FlightAware
04:41AM 2.8370 110.6750 261° West 486 559 34,000  Level FlightAware
04:42AM 2.8250 110.5950 261° West 486 559 34,000  Level FlightAware
04:42AM 2.8130 110.5110 262° West 486 559 34,000  Level FlightAware
04:43AM 2.8030 110.4440 262° West 486 559 34,000  Level FlightAware
04:43AM 2.7910 110.3640 261° West 486 559 34,000  Level FlightAware
04:44AM 2.7800 110.2890 262° West 486 559 34,000  Level FlightAware
04:45AM 2.7650 110.1890 261° West 485 558 34,000  Level FlightAware
04:45AM 2.7540 110.1100 262° West 485 558 34,000  Level FlightAware
04:46AM 2.7430 110.0390 261° West 485 558 34,000  Level FlightAware
04:46AM 2.7320 109.9610 262° West 485 558 34,000  Level FlightAware
04:47AM 2.7190 109.8790 261° West 485 558 34,000  Level FlightAware
04:48AM 2.7080 109.7990 262° West 484 557 34,000  Level FlightAware
04:48AM 2.6970 109.7280 261° West 484 557 34,000  Level FlightAware
04:49AM 2.6860 109.6490 262° West 483 556 34,000  Level FlightAware
04:49AM 2.6730 109.5670 261° West 483 556 34,000  Level FlightAware
04:50AM 2.6620 109.4880 262° West 482 555 34,000  Level FlightAware
04:51AM 2.6510 109.4160 261° West 482 555 34,000  Level FlightAware
04:51AM 2.6400 109.3400 262° West 483 556 34,000  Level FlightAware
04:52AM 2.6280 109.2610 261° West 483 556 34,000  Level FlightAware
04:52AM 2.6180 109.1910 262° West 483 556 34,000  Level FlightAware
04:53AM 2.6050 109.1070 261° West 483 556 34,000  Level FlightAware
04:53AM 2.5930 109.0290 261° West 484 557 34,000  Level FlightAware
04:54AM 2.5790 108.9480 260° West 484 557 34,000  Level FlightAware
04:55AM 2.5580 108.8750 254° West 485 558 34,000  Level FlightAware
04:55AM 2.5290 108.8000 249° West 484 557 34,000  Level FlightAware
04:56AM 2.5050 108.7360 249° West 486 559 34,000  Level FlightAware
04:56AM 2.4740 108.6560 249° West 487 560 34,000  Level FlightAware
04:57AM 2.4510 108.5980 248° West 487 560 34,000  Level FlightAware
04:58AM 2.4160 108.5050 249° West 487 560 34,000  Level FlightAware
04:58AM 2.3890 108.4370 248° West 486 559 34,000 60 Level FlightAware
04:59AM 2.3600 108.3620 249° West 483 556 34,100  Climbing FlightAware
04:59AM 2.3330 108.2910 249° West 482 555 34,000 -120 Descending FlightAware
05:00AM 2.3060 108.2200 249° West 482 555 34,000  Level FlightAware
05:01AM 2.2700 108.1270 249° West 483 556 34,000  Level FlightAware
05:01AM 2.2440 108.0590 249° West 483 556 34,000  Level FlightAware
05:02AM 2.2190 107.9940 249° West 483 556 34,000  Level FlightAware
05:02AM 2.1940 107.9300 249° West 483 556 34,000  Level FlightAware
05:03AM 2.1700 107.8660 249° West 483 556 34,000  Level FlightAware
05:04AM 2.1450 107.8020 249° West 483 556 34,000  Level FlightAware
05:04AM 2.1210 107.7380 249° West 483 556 34,000  Level FlightAware
05:05AM 2.0960 107.6740 249° West 483 556 34,000  Level FlightAware
05:05AM 2.0720 107.6100 249° West 483 556 34,000  Level FlightAware
05:06AM 2.0470 107.5470 248° West 483 556 34,000  Level FlightAware
05:07AM 2.0220 107.4830 249° West 483 556 34,000  Level FlightAware
05:07AM 1.9980 107.4190 249° West 483 556 34,000  Level FlightAware
05:08AM 1.9730 107.3550 249° West 483 556 34,000  Level FlightAware
05:08AM 1.9490 107.2910 249° West 483 556 34,000  Level FlightAware
05:09AM 1.9240 107.2270 249° West 483 556 34,000  Level FlightAware
05:10AM 1.9000 107.1630 249° West 483 556 34,000  Level FlightAware
05:10AM 1.8750 107.0990 249° West 483 556 34,000  Level FlightAware
05:13AM 1.9222 106.8100 279° West  Level Estimated
05:14AM 1.9435 106.6796 279° West  Level Estimated
05:15AM 1.9648 106.5492 279° West  Level Estimated
05:16AM 1.9860 106.4189 279° West  Level Estimated
05:17AM 2.0073 106.2885 279° West  Level Estimated
05:18AM 2.0285 106.1581 279° West  Level Estimated
05:19AM 2.0497 106.0277 279° West  Level Estimated
05:20AM 2.0709 105.8973 279° West  Level Estimated
05:21AM 2.0921 105.7669 279° West  Level Estimated
05:22AM 2.1133 105.6365 279° West  Level Estimated
05:23AM 2.1345 105.5061 279° West  Level Estimated
05:24AM 2.1557 105.3757 279° West  Level Estimated
05:25AM 2.1768 105.2453 279° West  Level Estimated
05:26AM 2.1980 105.1149 279° West  Level Estimated
05:27AM 2.2191 104.9844 279° West  Level Estimated
05:28AM 2.2403 104.8540 279° West  Level Estimated
05:29AM 2.2614 104.7236 279° West  Level Estimated
05:30AM 2.2825 104.5931 279° West  Level Estimated
05:31AM 2.3036 104.4627 279° West  Level Estimated
05:32AM 2.3246 104.3323 279° West  Level Estimated
05:33AM 2.3457 104.2018 279° West  Level Estimated
05:33AM 3.1710 103.9540 279° West 476 548 34,000  Level FlightAware
05:34AM 2.3668 104.0714 279° West  Level Estimated
05:34AM 3.1670 103.8420 268° West 476 548 34,000  Level FlightAware
05:35AM 3.1640 103.7640 268° West 476 548 34,000  Level FlightAware
05:35AM 3.1610 103.6850 268° West 477 549 34,000  Level FlightAware
05:36AM 3.1580 103.6190 267° West 476 548 34,000  Level FlightAware
05:37AM 3.1550 103.5390 268° West 448 516 34,000 -540 Level FlightAware
05:37AM 3.1470 103.4690 263° West 420 483 33,400 -1,200 Descending FlightAware
05:38AM 3.1360 103.3820 263° West 400 460 32,400 -1,320 Descending FlightAware
05:38AM 3.1300 103.3350 263° West 393 452 31,800 -1,560 Descending FlightAware
05:39AM 3.1200 103.2620 262° West 383 441 30,700 -1,740 Descending FlightAware
05:40AM 3.1120 103.2040 262° West 381 438 29,600 -1,800 Descending FlightAware
05:40AM 3.1050 103.1480 263° West 378 435 28,700 -1,800 Descending FlightAware
05:41AM 3.0960 103.0850 262° West 371 427 27,600 -1,800 Descending FlightAware
05:41AM 3.0870 103.0150 263° West 368 423 26,400 -1,680 Descending FlightAware
05:42AM 3.0790 102.9560 262° West 360 414 25,500 -1,440 Descending FlightAware
05:43AM 3.0710 102.8970 262° West 351 404 24,700 -1,440 Descending FlightAware
05:43AM 3.0630 102.8400 262° West 343 395 23,800 -1,440 Descending FlightAware
05:44AM 3.0550 102.7780 263° West 331 381 22,900 -1,500 Descending FlightAware
05:45AM 3.0480 102.7230 263° West 327 376 21,900 -1,620 Descending FlightAware
05:45AM 3.0400 102.6660 262° West 330 380 20,800 -1,440 Descending FlightAware
05:46AM 3.0320 102.6070 262° West 316 364 20,100 -1,200 Descending FlightAware
05:46AM 3.0250 102.5550 262° West 307 353 19,400 -1,200 Descending FlightAware
05:47AM 3.0190 102.5060 263° West 303 349 18,700 -1,680 Descending FlightAware
05:48AM 2.9950 102.4610 242° Southwest 299 344 17,400 -2,220 Descending FlightAware
05:48AM 2.9810 102.4460 227° Southwest 316 364 16,800 -1,080 Descending FlightAware
05:49AM 2.9450 102.4100 225° Southwest 316 364 16,400 -1,740 Descending FlightAware
05:49AM 2.8980 102.3600 227° Southwest 310 357 14,500 -2,160 Descending FlightAware
05:50AM 2.8660 102.3280 225° Southwest 299 344 13,900 -1,020 Descending FlightAware
05:50AM 2.8350 102.2950 227° Southwest 284 327 13,400 -1,200 Descending FlightAware
05:51AM 2.8010 102.2600 226° Southwest 281 323 12,500 -1,380 Descending FlightAware
05:52AM 2.7690 102.2280 225° Southwest 272 313 11,800 -1,200 Descending FlightAware
05:52AM 2.7380 102.1950 227° Southwest 267 307 11,100 -1,200 Descending FlightAware
05:53AM 2.7120 102.1680 226° Southwest 262 302 10,500 -1,320 Descending FlightAware
05:53AM 2.6940 102.1490 227° Southwest 259 298 10,000 -1,620 Descending FlightAware
05:53AM 2.6870 102.1390 235° Southwest 259 298 9,700 -1,440 Descending FlightAware
05:54AM 2.6740 102.1190 237° Southwest 258 297 9,300 -1,320 Descending FlightAware
05:54AM 2.6590 102.0990 233° Southwest 254 292 8,800 -1,320 Descending FlightAware
05:54AM 2.6460 102.0800 236° Southwest 251 289 8,400 -1,500 Descending FlightAware
05:55AM 2.6320 102.0590 236° Southwest 253 291 7,800 -1,620 Descending FlightAware
05:55AM 2.6150 102.0340 236° Southwest 253 291 7,200 -1,440 Descending FlightAware
05:55AM 2.6050 102.0190 236° Southwest 254 292 6,800 -1,200 Descending FlightAware
05:56AM 2.5920 102.0000 236° Southwest 247 284 6,500 -360 Descending FlightAware
05:56AM 2.5760 101.9770 235° Southwest 247 284 6,500 -600 Level FlightAware
05:57AM 2.5500 101.9400 235° Southwest 209 241 5,800 -1,080 Descending FlightAware
05:57AM 2.5380 101.9210 238° Southwest 199 229 5,500 -420 Descending FlightAware
05:58AM 2.5270 101.9050 235° Southwest 199 229 5,500 -480 Level FlightAware
05:58AM 2.5140 101.8860 236° Southwest 198 228 5,100 -1,560 Descending FlightAware
05:59AM 2.5360 101.8500 301° West 198 228 3,900 -1,320 Descending FlightAware
05:59AM 2.5250 101.8340 235° Southwest 198 228 3,900 -960 Level FlightAware
05:59AM 2.5490 101.8300 351° North 196 226 3,500 -1,380 Descending FlightAware
05:59AM 2.5630 101.8190 322° Northwest 184 212 3,400 -420 Descending FlightAware
06:00AM 2.5700 101.8140 324° Northwest 181 208 3,300 -720 Descending FlightAware
06:00AM 2.5880 101.8020 326° Northwest 190 219 3,000 -540 Descending FlightAware
06:00AM 2.5970 101.7960 326° Northwest 182 209 2,900 -900 Descending FlightAware
06:01AM 2.6170 101.7830 327° Northwest 175 201 2,400 -1,200 Descending FlightAware
06:01AM 2.6300 101.7740 325° Northwest 164 189 2,100 -900 Descending FlightAware
06:01AM 2.6440 101.7650 327° Northwest 157 181 1,800 -660 Descending FlightAware
06:02AM 2.6530 101.7590 326° Northwest 152 175 1,600 -240 Descending FlightAware
06:02AM 2.6650 101.7500 323° Northwest 152 175 1,600  Level FlightAware
06:05AM 2.7456 101.7099 334° Northwest  Level Estimated
06:06AM 2.7456 101.7099 236° Southwest  Level Estimated
06:07AM 2.7456 101.7099 236° Southwest  Level Estimated
06:08AM 2.7456 101.7099 236° Southwest  Level Estimated
06:09AM 2.7456 101.7099 236° Southwest  Level Estimated
06:10AM 2.7456 101.7099 236° Southwest  Level Estimated
06:11AM 2.7456 101.7099 236° Southwest  Level Estimated
06:12AM 2.7456 101.7099 236° Southwest  Level Estimated
06:13AM 2.7456 101.7099 236° Southwest  Level Estimated
06:14AM 2.7456 101.7099 236° Southwest  Level Estimated
06:15AM 2.7456 101.7099 236° Southwest  Level Estimated
06:16AM 2.7456 101.7099 236° Southwest  Level Estimated
06:17AM 2.7456 101.7099 236° Southwest  Level Estimated
06:18AM 2.7456 101.7099 236° Southwest  Level Estimated
06:19AM 2.7456 101.7099 236° Southwest  Level Estimated
06:20AM 2.7456 101.7099 236° Southwest  Level Estimated